Time;durP1;ratioP1;P1;durP2;ratioP2;P2;SDS_P1;SDS_P2;PMS_P1;PMS_P2;Temp;Humidity;BMP_temperature;BMP_pressure;BME280_temperature;BME280_humidity;BME280_pressure;Samples;Min_cycle;Max_cycle;Signal;HPM_P1;HPM_P2
2021/03/24 00:01:20;;;;;;;21.23;11.23;;;2.10;69.80;;;;;;4977094;28;20035;-63
2021/03/24 00:03:46;;;;;;;24.65;11.57;;;2.00;69.80;;;;;;4973808;28;20030;-64
2021/03/24 00:06:16;;;;;;;22.98;11.82;;;2.10;69.60;;;;;;4979447;28;20026;-64
2021/03/24 00:08:43;;;;;;;23.25;12.10;;;2.10;69.80;;;;;;4977035;28;20042;-63
2021/03/24 00:11:10;;;;;;;23.25;11.85;;;2.10;69.70;;;;;;4970955;28;20045;-64
2021/03/24 00:13:36;;;;;;;19.60;10.55;;;2.10;69.80;;;;;;4971480;28;20045;-64
2021/03/24 00:16:03;;;;;;;19.77;10.23;;;2.10;69.70;;;;;;4977131;28;20530;-63
2021/03/24 00:18:31;;;;;;;23.67;11.52;;;2.10;69.70;;;;;;4978622;28;20502;-64
2021/03/24 00:20:57;;;;;;;19.15;11.25;;;2.10;69.60;;;;;;4976008;28;20031;-64
2021/03/24 00:23:23;;;;;;;20.42;10.80;;;2.10;69.60;;;;;;4977558;28;20121;-64
2021/03/24 00:25:49;;;;;;;21.80;11.45;;;2.10;69.50;;;;;;4970019;28;20090;-64
2021/03/24 00:28:18;;;;;;;20.52;11.38;;;2.10;69.40;;;;;;4975193;28;20057;-64
2021/03/24 00:30:48;;;;;;;22.45;11.70;;;2.00;69.40;;;;;;4973134;28;20091;-64
2021/03/24 00:33:20;;;;;;;21.98;11.63;;;2.00;69.60;;;;;;4974848;28;20039;-64
2021/03/24 00:35:49;;;;;;;22.33;11.50;;;2.00;69.90;;;;;;4959815;28;20038;-64
2021/03/24 00:38:16;;;;;;;20.17;10.52;;;2.00;70.10;;;;;;4975499;28;20081;-63
2021/03/24 00:40:45;;;;;;;22.58;11.60;;;1.90;70.00;;;;;;4989218;28;20034;-64
2021/03/24 00:43:12;;;;;;;28.05;12.23;;;1.90;70.10;;;;;;4978059;28;20458;-63
2021/03/24 00:45:39;;;;;;;26.63;12.30;;;1.80;70.20;;;;;;4977890;28;20105;-63
2021/03/24 00:48:07;;;;;;;23.92;12.20;;;1.80;70.60;;;;;;4974474;28;20327;-64
2021/03/24 00:50:34;;;;;;;19.17;10.60;;;1.80;70.80;;;;;;4985361;28;20035;-63
2021/03/24 00:53:00;;;;;;;20.73;10.55;;;1.70;71.00;;;;;;4976764;28;20517;-64
2021/03/24 00:55:29;;;;;;;19.83;9.85;;;1.70;71.00;;;;;;4972088;28;20421;-64
2021/03/24 00:57:54;;;;;;;17.77;9.95;;;1.70;71.70;;;;;;4960731;28;20042;-63
2021/03/24 01:00:41;;;;;;;17.75;9.90;;;1.70;71.10;;;;;;4974117;28;20126;-64
2021/03/24 01:03:07;;;;;;;19.88;10.05;;;1.60;71.50;;;;;;4973697;28;20037;-64
2021/03/24 01:05:33;;;;;;;20.48;10.35;;;1.70;70.80;;;;;;4975124;28;20409;-64
2021/03/24 01:08:07;;;;;;;17.70;9.50;;;1.60;70.60;;;;;;4971688;28;20039;-64
2021/03/24 01:10:35;;;;;;;19.88;11.02;;;1.60;71.00;;;;;;4970013;28;20031;-64
2021/03/24 01:13:02;;;;;;;21.67;10.52;;;1.60;70.70;;;;;;4975129;28;20034;-64
2021/03/24 01:15:27;;;;;;;19.58;10.65;;;1.50;70.70;;;;;;4973244;28;20073;-64
2021/03/24 01:17:54;;;;;;;18.60;10.30;;;1.50;70.60;;;;;;4975725;28;20110;-64
2021/03/24 01:20:28;;;;;;;19.58;10.90;;;1.50;70.70;;;;;;4975475;28;20509;-64
2021/03/24 01:22:54;;;;;;;25.10;11.48;;;1.50;70.80;;;;;;4976454;28;20035;-64
2021/03/24 01:25:23;;;;;;;19.38;11.18;;;1.50;70.60;;;;;;4975043;28;20026;-64
2021/03/24 01:27:54;;;;;;;18.85;10.35;;;1.50;70.60;;;;;;4973966;28;20031;-64
2021/03/24 01:30:22;;;;;;;19.77;11.07;;;1.50;71.50;;;;;;4971135;28;20043;-64
2021/03/24 01:32:48;;;;;;;19.75;9.88;;;1.60;70.60;;;;;;4975656;28;20027;-64
2021/03/24 01:35:16;;;;;;;18.75;10.57;;;1.50;70.50;;;;;;4980911;28;20110;-64
2021/03/24 01:37:44;;;;;;;18.77;10.70;;;1.50;70.50;;;;;;4978521;28;20065;-63
2021/03/24 01:40:25;;;;;;;16.92;10.00;;;1.60;70.30;;;;;;4978438;28;20026;-64
2021/03/24 01:42:52;;;;;;;22.48;11.73;;;1.60;70.50;;;;;;4974364;28;20058;-64
2021/03/24 01:45:21;;;;;;;22.27;10.85;;;1.60;70.30;;;;;;4978548;28;20085;-63
2021/03/24 01:47:47;;;;;;;19.88;11.15;;;1.50;70.50;;;;;;4975536;28;20027;-64
2021/03/24 01:50:28;;;;;;;23.10;12.05;;;1.50;70.30;;;;;;4978776;28;20151;-64
2021/03/24 01:52:56;;;;;;;22.92;11.30;;;1.40;70.80;;;;;;4981067;28;20092;-64
2021/03/24 01:55:23;;;;;;;21.40;10.98;;;1.40;70.60;;;;;;4977243;28;20117;-64
2021/03/24 01:57:51;;;;;;;20.52;11.30;;;1.40;70.60;;;;;;4979156;28;20031;-64
2021/03/24 02:00:27;;;;;;;25.48;12.07;;;1.30;70.70;;;;;;4975987;28;20552;-65
2021/03/24 02:02:52;;;;;;;22.20;11.38;;;1.40;70.80;;;;;;4969843;28;20046;-64
2021/03/24 02:05:20;;;;;;;19.92;10.40;;;1.30;70.60;;;;;;4970906;28;20073;-65
2021/03/24 02:07:57;;;;;;;21.15;10.85;;;1.30;70.80;;;;;;4980433;28;20066;-64
2021/03/24 02:10:57;;;;;;;20.48;10.63;;;1.30;71.00;;;;;;4972236;28;20038;-64
2021/03/24 02:13:30;;;;;;;20.38;10.88;;;1.30;71.20;;;;;;4976501;28;20109;-64
2021/03/24 02:16:00;;;;;;;20.95;11.18;;;1.30;70.80;;;;;;4972564;28;20588;-64
2021/03/24 02:18:32;;;;;;;21.70;11.48;;;1.30;70.50;;;;;;4974855;28;20476;-66
2021/03/24 02:21:01;;;;;;;20.98;10.40;;;1.30;70.50;;;;;;4977008;28;20026;-64
2021/03/24 02:23:48;;;;;;;23.05;11.30;;;1.30;70.60;;;;;;4977320;28;20066;-63
2021/03/24 02:26:37;;;;;;;22.80;11.35;;;1.30;71.10;;;;;;4976506;28;20041;-64
2021/03/24 02:29:11;;;;;;;22.85;11.38;;;1.20;71.20;;;;;;4973951;28;20046;-64
2021/03/24 02:31:39;;;;;;;20.58;11.48;;;1.20;70.60;;;;;;4975447;28;20417;-65
2021/03/24 02:34:10;;;;;;;24.10;11.52;;;1.20;70.50;;;;;;4975576;28;20118;-63
2021/03/24 02:36:38;;;;;;;19.70;10.70;;;1.20;70.60;;;;;;4975126;28;20487;-64
2021/03/24 02:39:08;;;;;;;21.38;10.55;;;1.10;70.50;;;;;;4978087;28;20465;-64
2021/03/24 02:41:35;;;;;;;21.65;10.82;;;1.10;70.60;;;;;;4977494;28;20034;-65
2021/03/24 02:44:02;;;;;;;22.48;11.15;;;1.10;70.60;;;;;;4976232;28;20030;-65
2021/03/24 02:46:28;;;;;;;20.15;10.77;;;1.10;70.80;;;;;;4979352;28;20433;-64
2021/03/24 02:48:58;;;;;;;21.55;11.52;;;1.10;70.80;;;;;;4977007;28;20061;-64
2021/03/24 02:51:27;;;;;;;20.88;11.15;;;1.10;70.70;;;;;;4975110;28;20051;-64
2021/03/24 02:53:53;;;;;;;20.98;10.73;;;1.10;70.60;;;;;;4979609;28;20402;-64
2021/03/24 02:56:22;;;;;;;23.60;11.07;;;1.10;70.50;;;;;;4978039;28;20454;-64
2021/03/24 02:58:53;;;;;;;22.90;11.07;;;1.10;70.60;;;;;;4975328;28;20092;-65
2021/03/24 03:01:23;;;;;;;21.83;11.00;;;1.10;70.60;;;;;;4974946;28;20770;-64
2021/03/24 03:03:56;;;;;;;23.83;11.30;;;1.10;70.70;;;;;;4989007;28;20402;-64
2021/03/24 03:06:25;;;;;;;20.77;11.32;;;1.00;70.60;;;;;;4973704;28;20039;-64
2021/03/24 03:09:07;;;;;;;21.67;11.20;;;1.00;70.60;;;;;;4978339;28;20065;-64
2021/03/24 03:11:37;;;;;;;20.70;11.20;;;0.90;70.80;;;;;;4970736;28;20122;-65
2021/03/24 03:14:16;;;;;;;20.67;11.85;;;0.90;70.50;;;;;;4974112;28;20090;-64
2021/03/24 03:16:52;;;;;;;27.98;13.25;;;0.90;70.80;;;;;;4971914;28;20058;-64
2021/03/24 03:19:46;;;;;;;22.48;12.63;;;0.80;71.00;;;;;;4977838;28;20516;-64
2021/03/24 03:22:19;;;;;;;25.05;12.70;;;0.80;71.40;;;;;;4970103;28;20077;-64
2021/03/24 03:24:53;;;;;;;26.15;14.35;;;0.70;71.60;;;;;;4979565;28;20046;-64
2021/03/24 03:27:21;;;;;;;25.40;12.90;;;0.70;71.90;;;;;;4975287;28;20042;-64
2021/03/24 03:29:52;;;;;;;25.20;13.55;;;0.70;72.00;;;;;;4972894;28;20801;-64
2021/03/24 03:32:20;;;;;;;21.30;12.35;;;0.70;71.90;;;;;;4979487;28;20561;-64
2021/03/24 03:34:53;;;;;;;22.98;12.35;;;0.80;71.70;;;;;;4975677;28;20046;-64
2021/03/24 03:37:20;;;;;;;20.75;11.52;;;0.70;71.70;;;;;;4975276;28;20617;-64
2021/03/24 03:39:47;;;;;;;23.95;11.95;;;0.80;72.60;;;;;;4975764;28;20047;-64
2021/03/24 03:42:16;;;;;;;22.27;12.40;;;0.80;71.50;;;;;;4972504;28;20035;-65
2021/03/24 03:44:46;;;;;;;22.60;12.32;;;0.80;71.30;;;;;;4971267;28;20164;-64
2021/03/24 03:47:15;;;;;;;23.30;12.57;;;0.80;71.30;;;;;;4979385;28;20035;-64
2021/03/24 03:49:44;;;;;;;21.88;11.80;;;0.80;71.20;;;;;;4976605;28;20034;-64
2021/03/24 03:52:42;;;;;;;23.15;11.98;;;0.90;71.00;;;;;;4974880;28;20031;-64
2021/03/24 03:55:13;;;;;;;26.15;12.40;;;0.90;71.20;;;;;;4964897;28;20039;-64
2021/03/24 03:57:43;;;;;;;24.85;13.00;;;0.90;70.90;;;;;;4974244;28;20134;-64
2021/03/24 04:00:13;;;;;;;25.05;12.75;;;0.90;71.80;;;;;;4971128;28;21040;-64
2021/03/24 04:02:48;;;;;;;23.10;12.38;;;1.00;71.00;;;;;;4974178;28;20490;-64
2021/03/24 04:05:25;;;;;;;24.92;13.60;;;0.90;70.80;;;;;;4972560;28;20030;-64
2021/03/24 04:07:59;;;;;;;24.90;12.90;;;0.90;70.90;;;;;;4976019;28;20039;-64
2021/03/24 04:10:29;;;;;;;24.55;13.80;;;0.90;70.90;;;;;;4966033;28;20038;-64
2021/03/24 04:12:56;;;;;;;23.67;13.32;;;0.90;70.80;;;;;;4974756;28;20058;-64
2021/03/24 04:15:24;;;;;;;24.92;13.40;;;0.80;70.80;;;;;;4971365;28;20045;-62
2021/03/24 04:17:57;;;;;;;22.58;13.13;;;0.80;70.90;;;;;;4975552;28;20035;-64
2021/03/24 04:20:25;;;;;;;25.08;12.43;;;0.80;71.00;;;;;;4975675;28;20102;-64
2021/03/24 04:22:55;;;;;;;26.48;13.70;;;0.80;70.90;;;;;;4972808;28;20401;-64
2021/03/24 04:25:31;;;;;;;27.20;13.02;;;0.80;70.80;;;;;;4962422;28;20406;-64
2021/03/24 04:28:01;;;;;;;21.92;12.02;;;0.80;71.00;;;;;;4971933;28;20045;-64
2021/03/24 04:30:38;;;;;;;25.05;13.00;;;0.70;70.70;;;;;;4970545;28;20062;-64
2021/03/24 04:33:06;;;;;;;24.52;13.27;;;0.80;70.80;;;;;;4973180;28;20035;-64
2021/03/24 04:35:34;;;;;;;25.92;13.65;;;0.80;70.60;;;;;;4971591;28;20042;-64
2021/03/24 04:38:04;;;;;;;27.70;13.55;;;0.80;70.50;;;;;;4971641;28;20050;-64
2021/03/24 04:40:49;;;;;;;26.60;12.70;;;0.80;70.50;;;;;;4967510;28;20042;-64
2021/03/24 04:43:20;;;;;;;23.65;12.50;;;0.70;70.60;;;;;;4971759;28;20035;-64
2021/03/24 04:46:03;;;;;;;25.35;12.75;;;0.70;70.40;;;;;;4968100;28;20052;-64
2021/03/24 04:48:34;;;;;;;24.60;13.02;;;0.70;70.60;;;;;;4966608;28;20035;-64
2021/03/24 04:51:17;;;;;;;26.67;14.45;;;0.70;70.60;;;;;;4971431;28;20066;-63
2021/03/24 04:53:45;;;;;;;23.13;13.35;;;0.70;70.60;;;;;;4970275;28;20553;-64
2021/03/24 04:56:18;;;;;;;25.95;13.77;;;0.70;70.40;;;;;;4967273;28;20049;-64
2021/03/24 04:58:49;;;;;;;25.67;13.50;;;0.60;70.40;;;;;;4968263;28;20050;-64
2021/03/24 05:01:32;;;;;;;22.63;13.18;;;0.60;70.50;;;;;;4969959;28;20030;-64
2021/03/24 05:04:05;;;;;;;22.88;12.90;;;0.60;70.60;;;;;;4966382;28;20058;-64
2021/03/24 05:06:41;;;;;;;27.50;13.85;;;0.60;70.40;;;;;;4966593;28;20466;-63
2021/03/24 05:09:09;;;;;;;31.10;14.35;;;0.60;70.70;;;;;;4968288;28;20549;-64
2021/03/24 05:11:44;;;;;;;25.52;13.98;;;0.60;70.60;;;;;;4964511;28;20058;-64
2021/03/24 05:14:18;;;;;;;25.92;13.57;;;0.60;70.70;;;;;;4970835;28;20074;-64
2021/03/24 05:16:46;;;;;;;25.55;13.38;;;0.60;70.80;;;;;;4968635;28;20043;-64
2021/03/24 05:19:23;;;;;;;25.90;13.40;;;0.60;70.40;;;;;;4973799;28;20101;-64
2021/03/24 05:22:06;;;;;;;25.67;12.95;;;0.60;71.40;;;;;;4968501;28;20039;-64
2021/03/24 05:24:36;;;;;;;25.65;13.35;;;0.60;70.70;;;;;;4974338;28;20050;-64
2021/03/24 05:27:09;;;;;;;27.15;14.82;;;0.60;70.50;;;;;;4968350;28;20036;-63
2021/03/24 05:29:44;;;;;;;25.23;13.80;;;0.60;70.30;;;;;;4972479;28;20042;-64
2021/03/24 05:32:18;;;;;;;23.05;13.18;;;0.60;70.50;;;;;;4973879;28;20081;-64
2021/03/24 05:34:49;;;;;;;25.90;13.25;;;0.60;70.60;;;;;;4973653;28;20043;-64
2021/03/24 05:37:15;;;;;;;25.70;13.60;;;0.60;70.40;;;;;;4978064;28;20031;-65
2021/03/24 05:39:42;;;;;;;25.02;13.55;;;0.60;70.40;;;;;;4975794;28;20093;-64
2021/03/24 05:42:26;;;;;;;27.17;13.32;;;0.50;70.50;;;;;;4973880;28;20038;-65
2021/03/24 05:44:54;;;;;;;24.85;13.93;;;0.50;70.80;;;;;;4976195;28;20061;-65
2021/03/24 05:47:41;;;;;;;23.50;14.02;;;0.50;70.80;;;;;;4977806;28;20533;-64
2021/03/24 05:50:36;;;;;;;25.85;13.73;;;0.50;71.50;;;;;;4975891;28;20033;-65
2021/03/24 05:53:43;;;;;;;23.65;13.15;;;0.60;71.70;;;;;;4977769;28;20023;-64
2021/03/24 05:56:26;;;;;;;24.38;14.23;;;0.60;71.70;;;;;;4968773;28;20621;-64
2021/03/24 05:59:00;;;;;;;28.98;16.15;;;0.60;71.40;;;;;;4976851;28;20055;-64
2021/03/24 06:01:33;;;;;;;29.98;15.90;;;0.70;71.50;;;;;;4977858;28;20089;-65
2021/03/24 06:04:23;;;;;;;32.40;15.57;;;0.70;71.30;;;;;;4974700;28;20037;-63
2021/03/24 06:07:20;;;;;;;32.80;15.18;;;0.70;71.60;;;;;;4975437;28;20114;-64
2021/03/24 06:09:56;;;;;;;41.33;18.90;;;0.70;71.90;;;;;;4975768;28;20055;-65
2021/03/24 06:13:06;;;;;;;60.33;26.23;;;0.80;71.90;;;;;;4971090;28;20046;-64
2021/03/24 06:16:11;;;;;;;59.10;26.15;;;0.80;72.30;;;;;;4978103;28;20039;-64
2021/03/24 06:18:44;;;;;;;36.55;16.58;;;0.90;72.00;;;;;;4950155;28;20532;-64
2021/03/24 06:21:41;;;;;;;36.17;16.63;;;0.90;72.00;;;;;;4981897;28;20109;-65
2021/03/24 06:24:37;;;;;;;27.92;14.27;;;1.00;72.60;;;;;;4963298;28;20080;-65
2021/03/24 06:27:10;;;;;;;26.92;12.80;;;1.00;72.50;;;;;;4978828;28;20688;-65
2021/03/24 06:30:09;;;;;;;26.42;14.43;;;1.10;72.40;;;;;;4978942;28;20045;-64
2021/03/24 06:32:49;;;;;;;23.90;13.23;;;1.10;73.00;;;;;;4981339;28;20034;-64
2021/03/24 06:35:27;;;;;;;31.15;15.82;;;1.10;72.60;;;;;;4981112;28;20035;-65
2021/03/24 06:38:18;;;;;;;27.10;13.85;;;1.20;73.30;;;;;;4981314;28;20601;-64
2021/03/24 06:41:00;;;;;;;29.95;15.25;;;1.20;73.60;;;;;;4979242;28;20458;-64
2021/03/24 06:43:46;;;;;;;29.42;14.18;;;1.20;73.40;;;;;;4979035;28;20050;-65
2021/03/24 06:46:39;;;;;;;29.42;15.55;;;1.30;73.40;;;;;;4980334;28;20038;-64
2021/03/24 06:49:37;;;;;;;34.17;15.45;;;1.30;73.80;;;;;;4977200;28;20034;-64
2021/03/24 06:52:27;;;;;;;29.60;14.77;;;1.40;74.10;;;;;;4975893;28;20114;-62
2021/03/24 06:55:10;;;;;;;28.83;15.13;;;1.40;73.30;;;;;;4979472;28;20371;-64
2021/03/24 06:57:55;;;;;;;33.50;16.52;;;1.50;74.10;;;;;;4964068;28;20499;-64
2021/03/24 07:00:31;;;;;;;34.03;16.43;;;1.60;73.80;;;;;;4977994;28;20026;-64
2021/03/24 07:03:17;;;;;;;35.83;19.70;;;1.70;73.60;;;;;;4978665;28;20038;-64
2021/03/24 07:06:16;;;;;;;31.77;16.83;;;1.70;74.10;;;;;;4981003;28;20036;-64
2021/03/24 07:09:00;;;;;;;33.97;17.10;;;1.80;74.50;;;;;;4978831;28;20039;-64
2021/03/24 07:11:32;;;;;;;37.55;19.23;;;1.80;73.80;;;;;;4970937;28;20031;-64
2021/03/24 07:14:24;;;;;;;36.35;18.35;;;1.90;73.90;;;;;;4974306;28;20087;-65
2021/03/24 07:16:52;;;;;;;40.97;18.75;;;1.90;74.50;;;;;;4966569;28;20027;-64
2021/03/24 07:19:49;;;;;;;37.05;18.77;;;2.00;73.60;;;;;;4979383;28;20046;-64
2021/03/24 07:22:36;;;;;;;36.22;18.42;;;2.10;74.60;;;;;;4962773;28;20577;-64
2021/03/24 07:25:25;;;;;;;33.03;17.73;;;2.20;74.60;;;;;;4975392;28;20649;-64
2021/03/24 07:27:57;;;;;;;34.72;18.80;;;2.30;74.60;;;;;;4979279;28;20085;-64
2021/03/24 07:30:44;;;;;;;32.88;19.30;;;2.30;73.80;;;;;;4976314;28;20046;-63
2021/03/24 07:33:19;;;;;;;34.05;17.80;;;2.40;74.80;;;;;;4977243;28;20490;-64
2021/03/24 07:36:10;;;;;;;32.05;18.00;;;2.50;74.30;;;;;;4978029;28;20154;-64
2021/03/24 07:39:17;;;;;;;36.35;18.10;;;2.50;74.60;;;;;;4978632;28;20030;-62
2021/03/24 07:42:35;;;;;;;36.90;18.45;;;2.60;75.20;;;;;;4978530;28;20022;-64
2021/03/24 07:45:32;;;;;;;31.58;18.15;;;2.70;75.70;;;;;;4970391;28;20498;-65
2021/03/24 07:48:32;;;;;;;38.30;18.50;;;2.70;74.80;;;;;;4977591;28;20125;-64
2021/03/24 07:51:14;;;;;;;33.08;17.70;;;2.80;75.00;;;;;;4976478;28;20110;-64
2021/03/24 07:54:13;;;;;;;37.42;18.75;;;2.90;74.20;;;;;;4979074;28;20129;-65
2021/03/24 07:57:07;;;;;;;33.55;17.52;;;3.00;74.80;;;;;;4978189;28;20034;-63
2021/03/24 07:59:46;;;;;;;31.63;17.85;;;3.10;74.40;;;;;;4959589;28;20457;-64
2021/03/24 08:03:02;;;;;;;33.15;17.45;;;3.20;74.40;;;;;;4965762;28;20034;-64
2021/03/24 08:05:34;;;;;;;36.17;17.40;;;3.30;74.80;;;;;;4969208;28;20062;-64
2021/03/24 08:08:11;;;;;;;34.80;19.13;;;3.40;74.00;;;;;;4976259;28;20525;-64
2021/03/24 08:10:53;;;;;;;37.67;19.80;;;3.50;74.00;;;;;;4974175;28;20031;-64
2021/03/24 08:14:06;;;;;;;34.47;18.33;;;3.60;74.20;;;;;;4978479;28;20615;-64
2021/03/24 08:16:58;;;;;;;42.15;20.60;;;3.80;75.40;;;;;;4936609;29;20415;-63
2021/03/24 08:19:42;;;;;;;38.15;19.13;;;3.90;74.30;;;;;;4935285;29;20043;-64
2021/03/24 08:22:27;;;;;;;34.42;18.75;;;4.00;73.90;;;;;;4971719;28;20122;-63
2021/03/24 08:25:06;;;;;;;41.25;18.38;;;4.10;74.00;;;;;;4978365;28;20039;-64
2021/03/24 08:27:58;;;;;;;39.83;20.73;;;4.10;73.80;;;;;;4977858;28;20026;-64
2021/03/24 08:30:47;;;;;;;34.30;19.00;;;4.20;74.10;;;;;;4976737;28;20117;-63
2021/03/24 08:33:45;;;;;;;34.97;19.83;;;4.30;75.00;;;;;;4975979;28;20022;-64
2021/03/24 08:36:28;;;;;;;35.95;19.38;;;4.40;75.00;;;;;;4977580;28;20046;-64
2021/03/24 08:39:09;;;;;;;37.97;18.55;;;4.60;74.60;;;;;;4977295;28;20125;-64
2021/03/24 08:42:14;;;;;;;35.28;20.50;;;4.60;74.50;;;;;;4976544;28;20034;-64
2021/03/24 08:44:52;;;;;;;31.83;18.45;;;4.70;74.80;;;;;;4976259;28;20188;-63
2021/03/24 08:47:25;;;;;;;33.90;18.42;;;4.80;74.00;;;;;;4971751;28;20049;-64
2021/03/24 08:49:54;;;;;;;34.25;17.63;;;4.90;73.80;;;;;;4976314;28;20027;-64
2021/03/24 08:52:41;;;;;;;34.92;18.33;;;5.00;73.60;;;;;;4978648;28;20041;-64
2021/03/24 08:55:32;;;;;;;35.13;17.33;;;5.10;73.80;;;;;;4977754;28;20042;-64
2021/03/24 08:58:04;;;;;;;35.03;17.48;;;5.20;73.70;;;;;;4977167;28;20039;-64
2021/03/24 09:00:53;;;;;;;35.30;17.73;;;5.30;73.30;;;;;;4972412;28;20510;-64
2021/03/24 09:03:37;;;;;;;31.48;17.38;;;5.40;73.50;;;;;;4978684;28;20065;-64
2021/03/24 09:06:06;;;;;;;31.27;17.77;;;5.50;73.10;;;;;;4961871;28;20034;-63
2021/03/24 09:08:59;;;;;;;35.28;17.42;;;5.60;73.10;;;;;;4978198;28;20038;-63
2021/03/24 09:11:37;;;;;;;31.55;16.55;;;5.70;73.10;;;;;;4962096;28;20048;-64
2021/03/24 09:14:09;;;;;;;28.50;15.07;;;5.90;73.40;;;;;;4974745;28;20030;-63
2021/03/24 09:16:55;;;;;;;30.48;15.23;;;6.00;73.10;;;;;;4974858;28;20485;-64
2021/03/24 09:19:52;;;;;;;23.83;14.32;;;6.20;73.00;;;;;;4975865;28;20130;-64
2021/03/24 09:22:38;;;;;;;27.13;15.35;;;6.40;73.10;;;;;;4977857;28;20046;-64
2021/03/24 09:25:28;;;;;;;24.45;14.02;;;6.50;72.70;;;;;;4978363;28;20031;-64
2021/03/24 09:28:20;;;;;;;28.90;14.30;;;6.70;72.30;;;;;;4978675;28;20030;-64
2021/03/24 09:30:48;;;;;;;27.35;14.77;;;6.80;72.00;;;;;;4975561;28;20043;-63
2021/03/24 09:33:21;;;;;;;25.73;13.70;;;6.90;71.60;;;;;;4971275;28;20063;-64
2021/03/24 09:36:04;;;;;;;23.08;13.88;;;7.00;71.10;;;;;;4974782;28;20042;-63
2021/03/24 09:38:39;;;;;;;26.38;14.02;;;7.20;70.70;;;;;;4976755;28;20105;-64
2021/03/24 09:41:24;;;;;;;24.33;14.10;;;7.30;70.70;;;;;;4973916;28;20118;-64
2021/03/24 09:43:57;;;;;;;25.23;13.95;;;7.40;70.20;;;;;;4975083;28;20055;-65
2021/03/24 09:46:46;;;;;;;25.95;14.05;;;7.50;70.20;;;;;;4974899;28;20504;-65
2021/03/24 09:49:21;;;;;;;21.98;12.60;;;7.70;69.70;;;;;;4976884;28;20030;-64
2021/03/24 09:52:20;;;;;;;20.48;12.85;;;7.80;69.90;;;;;;4978494;28;20035;-65
2021/03/24 09:55:04;;;;;;;22.92;12.77;;;7.90;69.40;;;;;;4978941;28;20039;-64
2021/03/24 09:57:53;;;;;;;20.67;12.38;;;8.10;69.00;;;;;;4980232;28;20037;-64
2021/03/24 10:00:22;;;;;;;21.85;12.10;;;8.20;68.90;;;;;;4977238;28;20097;-64
2021/03/24 10:03:00;;;;;;;23.45;12.55;;;8.30;68.80;;;;;;4978245;28;20052;-64
2021/03/24 10:05:45;;;;;;;25.88;13.10;;;8.50;68.60;;;;;;4979981;28;20042;-64
2021/03/24 10:08:16;;;;;;;22.95;13.10;;;8.60;67.50;;;;;;4980036;28;20031;-65
2021/03/24 10:10:48;;;;;;;23.90;12.70;;;8.70;67.80;;;;;;4974141;28;20091;-65
2021/03/24 10:13:26;;;;;;;20.35;12.77;;;8.80;67.60;;;;;;4978651;28;20041;-64
2021/03/24 10:15:56;;;;;;;20.77;12.73;;;9.00;67.30;;;;;;4980053;28;20463;-65
2021/03/24 10:18:52;;;;;;;22.55;11.93;;;9.10;67.20;;;;;;4980672;28;20438;-65
2021/03/24 10:21:26;;;;;;;23.40;12.35;;;9.20;66.40;;;;;;4982071;28;20034;-64
2021/03/24 10:24:00;;;;;;;23.20;11.90;;;9.40;66.40;;;;;;4979083;28;20058;-65
2021/03/24 10:26:44;;;;;;;12.52;8.70;;;9.50;65.10;;;;;;4981382;28;20529;-65
2021/03/24 10:29:15;;;;;;;18.50;10.35;;;9.60;65.10;;;;;;4979776;28;20035;-65
2021/03/24 10:31:46;;;;;;;19.00;11.65;;;9.70;64.60;;;;;;4977744;28;20030;-65
2021/03/24 10:34:14;;;;;;;20.33;11.60;;;9.80;64.40;;;;;;4979532;28;20034;-65
2021/03/24 10:37:02;;;;;;;18.75;11.32;;;9.80;64.40;;;;;;4980200;28;20426;-65
2021/03/24 10:39:47;;;;;;;19.67;11.73;;;9.90;63.50;;;;;;4979956;28;20409;-65
2021/03/24 10:42:45;;;;;;;;;;;10.00;63.40;;;;;;4980081;28;20026;-64
2021/03/24 10:45:31;;;;;;;17.73;9.80;;;10.10;64.00;;;;;;4953040;28;20469;-64
2021/03/24 10:48:28;;;;;;;17.42;10.25;;;10.20;63.40;;;;;;4979534;28;20046;-65
2021/03/24 10:51:12;;;;;;;18.13;9.23;;;10.30;62.90;;;;;;4979401;28;20042;-64
2021/03/24 10:53:40;;;;;;;19.40;9.70;;;10.40;62.60;;;;;;4978537;28;20474;-64
2021/03/24 10:56:36;;;;;;;18.30;9.95;;;10.50;62.90;;;;;;4979183;28;20034;-62
2021/03/24 10:59:25;;;;;;;16.77;9.18;;;10.70;61.40;;;;;;4978804;28;20053;-65
2021/03/24 11:02:03;;;;;;;16.80;9.13;;;10.80;61.20;;;;;;4976919;28;20030;-65
2021/03/24 11:05:11;;;;;;;14.55;8.95;;;10.90;61.10;;;;;;4978226;28;20054;-65
2021/03/24 11:08:27;;;;;;;13.57;9.00;;;11.00;60.70;;;;;;4915128;29;20455;-64
2021/03/24 11:11:21;;;;;;;19.45;9.18;;;11.10;60.00;;;;;;4887297;29;20032;-64
2021/03/24 11:13:49;;;;;;;14.88;8.93;;;11.30;60.10;;;;;;4979441;28;20030;-65
2021/03/24 11:16:36;;;;;;;15.73;9.13;;;11.40;60.50;;;;;;4978502;28;20924;-65
2021/03/24 11:19:25;;;;;;;13.68;8.57;;;11.50;59.50;;;;;;4975233;28;20046;-65
2021/03/24 11:22:14;;;;;;;14.13;8.38;;;11.60;59.40;;;;;;4981062;28;20551;-65
2021/03/24 11:24:53;;;;;;;11.10;7.80;;;11.70;58.90;;;;;;4978004;28;20039;-65
2021/03/24 11:27:41;;;;;;;15.18;8.05;;;11.80;58.40;;;;;;4979306;28;20062;-66
2021/03/24 11:30:28;;;;;;;11.55;7.65;;;11.90;58.30;;;;;;4978404;28;20041;-65
2021/03/24 11:33:31;;;;;;;13.65;7.93;;;11.90;58.20;;;;;;4976213;28;20053;-64
2021/03/24 11:36:25;;;;;;;13.90;7.55;;;12.10;58.50;;;;;;4978767;28;20126;-64
2021/03/24 11:39:27;;;;;;;12.57;8.13;;;12.20;58.50;;;;;;4978651;28;20034;-64
2021/03/24 11:42:14;;;;;;;15.95;8.60;;;12.30;58.00;;;;;;4965049;28;20062;-65
2021/03/24 11:44:40;;;;;;;15.45;7.95;;;12.40;57.50;;;;;;4958619;28;20059;-64
2021/03/24 11:47:35;;;;;;;12.90;7.70;;;12.50;58.50;;;;;;4976901;28;20053;-64
2021/03/24 11:50:15;;;;;;;15.17;9.23;;;12.70;57.70;;;;;;4977160;28;20526;-64
2021/03/24 11:52:52;;;;;;;12.65;8.73;;;12.70;57.10;;;;;;4975812;28;20415;-64
2021/03/24 11:55:56;;;;;;;14.48;8.65;;;12.80;56.40;;;;;;4975516;28;20045;-65
2021/03/24 11:58:32;;;;;;;12.70;7.82;;;12.90;56.10;;;;;;4978192;28;20145;-65
2021/03/24 12:01:22;;;;;;;13.20;8.50;;;12.90;56.50;;;;;;4962608;28;20034;-64
2021/03/24 12:03:52;;;;;;;12.60;8.55;;;12.90;55.20;;;;;;4977628;28;20524;-65
2021/03/24 12:06:45;;;;;;;16.48;8.25;;;13.00;55.80;;;;;;4977908;28;20050;-64
2021/03/24 12:09:28;;;;;;;9.77;7.32;;;13.00;54.80;;;;;;4977740;28;20518;-64
2021/03/24 12:12:04;;;;;;;13.60;8.23;;;13.00;55.30;;;;;;4975750;28;20031;-65
2021/03/24 12:14:37;;;;;;;12.55;7.57;;;13.10;55.10;;;;;;4977730;28;20023;-64
2021/03/24 12:17:33;;;;;;;16.88;8.82;;;13.10;55.50;;;;;;4976638;28;20031;-65
2021/03/24 12:20:18;;;;;;;13.55;8.00;;;13.10;55.00;;;;;;4979034;28;20502;-64
2021/03/24 12:22:55;;;;;;;13.13;8.25;;;13.20;55.20;;;;;;4978998;28;20042;-65
2021/03/24 12:25:30;;;;;;;15.68;9.13;;;13.10;55.30;;;;;;4979132;28;20031;-65
2021/03/24 12:28:05;;;;;;;13.65;9.45;;;13.20;55.20;;;;;;4977011;28;20606;-65
2021/03/24 12:30:49;;;;;;;13.95;9.32;;;13.20;55.10;;;;;;4978352;28;20133;-64
2021/03/24 12:33:20;;;;;;;12.77;9.20;;;13.20;55.00;;;;;;4978205;28;20034;-65
2021/03/24 12:36:00;;;;;;;17.13;10.00;;;13.20;54.80;;;;;;4978999;28;20042;-66
2021/03/24 12:38:29;;;;;;;14.07;8.82;;;13.30;54.50;;;;;;4976862;28;20075;-65
2021/03/24 12:41:01;;;;;;;11.80;7.90;;;13.30;54.50;;;;;;4978475;28;20045;-65
2021/03/24 12:43:40;;;;;;;11.88;7.63;;;13.30;54.30;;;;;;4968587;28;20039;-65
2021/03/24 12:46:19;;;;;;;13.75;8.40;;;13.40;54.50;;;;;;4979333;28;20066;-63
2021/03/24 12:48:52;;;;;;;10.70;7.60;;;13.40;55.00;;;;;;4968589;28;20034;-64
2021/03/24 12:51:42;;;;;;;12.07;7.80;;;13.50;54.70;;;;;;4976259;28;20096;-65
2021/03/24 12:54:14;;;;;;;10.40;6.53;;;13.60;54.20;;;;;;4972748;28;20034;-66
2021/03/24 12:57:05;;;;;;;12.18;7.45;;;13.60;54.70;;;;;;4965561;28;20045;-66
2021/03/24 13:00:02;;;;;;;13.00;7.32;;;13.70;54.50;;;;;;4973583;28;20043;-64
2021/03/24 13:02:48;;;;;;;12.23;7.50;;;13.80;53.70;;;;;;4972932;28;20502;-65
2021/03/24 13:05:38;;;;;;;11.10;6.93;;;13.90;53.80;;;;;;4974961;28;20058;-65
2021/03/24 13:08:24;;;;;;;9.50;6.35;;;13.90;53.60;;;;;;4975575;28;20467;-63
2021/03/24 13:10:51;;;;;;;10.13;6.95;;;14.00;53.00;;;;;;4966337;28;20046;-67
2021/03/24 13:13:37;;;;;;;11.18;6.55;;;14.10;53.50;;;;;;4969052;28;20038;-66
2021/03/24 13:16:13;;;;;;;13.60;7.32;;;14.10;52.30;;;;;;4975066;28;20030;-65
2021/03/24 13:18:52;;;;;;;8.65;6.22;;;14.10;52.70;;;;;;4972008;28;20041;-65
2021/03/24 13:21:38;;;;;;;12.10;6.47;;;14.20;52.60;;;;;;4975023;28;20026;-66
2021/03/24 13:24:30;;;;;;;9.68;6.45;;;14.20;52.90;;;;;;4974070;28;20034;-67
2021/03/24 13:27:07;;;;;;;8.90;6.22;;;14.20;52.00;;;;;;4973290;28;20035;-66
2021/03/24 13:30:11;;;;;;;9.65;6.55;;;14.30;52.50;;;;;;4976200;28;20126;-67
2021/03/24 13:33:04;;;;;;;11.38;6.60;;;14.30;51.90;;;;;;4970962;28;20067;-65
2021/03/24 13:36:00;;;;;;;9.52;7.07;;;14.30;51.50;;;;;;4972787;28;20027;-65
2021/03/24 13:38:43;;;;;;;10.30;7.22;;;14.40;50.60;;;;;;4972922;28;20038;-65